sensor_id;sensor_type;location;lat;lon;timestamp;temperature;humidity
77056;SHT30;67471;44.918;8.614;2023-04-01T00:01:47;11.59;75.48
77056;SHT30;67471;44.918;8.614;2023-04-01T00:04:50;11.66;75.46
77056;SHT30;67471;44.918;8.614;2023-04-01T00:07:54;11.73;75.42
77056;SHT30;67471;44.918;8.614;2023-04-01T00:10:58;11.84;74.86
77056;SHT30;67471;44.918;8.614;2023-04-01T00:14:02;12.01;74.59
77056;SHT30;67471;44.918;8.614;2023-04-01T00:17:06;11.98;75.10
77056;SHT30;67471;44.918;8.614;2023-04-01T00:20:10;11.94;75.57
77056;SHT30;67471;44.918;8.614;2023-04-01T00:23:15;11.85;75.88
77056;SHT30;67471;44.918;8.614;2023-04-01T00:26:20;11.95;75.46
77056;SHT30;67471;44.918;8.614;2023-04-01T00:29:24;11.95;75.22
77056;SHT30;67471;44.918;8.614;2023-04-01T00:32:33;11.84;75.19
77056;SHT30;67471;44.918;8.614;2023-04-01T00:35:37;11.87;74.88
77056;SHT30;67471;44.918;8.614;2023-04-01T00:38:42;11.56;75.71
77056;SHT30;67471;44.918;8.614;2023-04-01T00:41:46;11.57;75.52
77056;SHT30;67471;44.918;8.614;2023-04-01T00:44:52;11.59;75.14
77056;SHT30;67471;44.918;8.614;2023-04-01T00:47:59;11.53;75.21
77056;SHT30;67471;44.918;8.614;2023-04-01T00:51:04;11.53;74.90
77056;SHT30;67471;44.918;8.614;2023-04-01T00:54:10;11.32;75.85
77056;SHT30;67471;44.918;8.614;2023-04-01T00:57:15;11.53;74.55
77056;SHT30;67471;44.918;8.614;2023-04-01T01:00:20;11.64;73.72
77056;SHT30;67471;44.918;8.614;2023-04-01T01:03:25;11.51;73.90
77056;SHT30;67471;44.918;8.614;2023-04-01T01:06:46;11.29;74.41
77056;SHT30;67471;44.918;8.614;2023-04-01T01:10:18;11.29;73.35
77056;SHT30;67471;44.918;8.614;2023-04-01T01:27:18;10.91;74.53
77056;SHT30;67471;44.918;8.614;2023-04-01T01:31:02;10.96;73.78
77056;SHT30;67471;44.918;8.614;2023-04-01T01:37:26;10.88;73.56
77056;SHT30;67471;44.918;8.614;2023-04-01T01:40:31;11.01;71.94
77056;SHT30;67471;44.918;8.614;2023-04-01T01:43:42;10.95;71.27
77056;SHT30;67471;44.918;8.614;2023-04-01T01:46:48;10.99;70.95
77056;SHT30;67471;44.918;8.614;2023-04-01T01:49:54;10.93;70.76
77056;SHT30;67471;44.918;8.614;2023-04-01T01:53:06;10.98;70.31
77056;SHT30;67471;44.918;8.614;2023-04-01T01:56:11;10.99;69.62
77056;SHT30;67471;44.918;8.614;2023-04-01T01:59:22;10.93;69.82
77056;SHT30;67471;44.918;8.614;2023-04-01T02:02:28;10.98;69.19
77056;SHT30;67471;44.918;8.614;2023-04-01T02:05:35;11.06;68.96
77056;SHT30;67471;44.918;8.614;2023-04-01T02:08:59;11.03;69.55
77056;SHT30;67471;44.918;8.614;2023-04-01T02:12:05;11.15;70.02
77056;SHT30;67471;44.918;8.614;2023-04-01T02:15:14;11.03;70.21
77056;SHT30;67471;44.918;8.614;2023-04-01T02:18:19;10.95;70.44
77056;SHT30;67471;44.918;8.614;2023-04-01T02:21:26;10.64;70.89
77056;SHT30;67471;44.918;8.614;2023-04-01T02:24:33;10.54;70.88
77056;SHT30;67471;44.918;8.614;2023-04-01T02:27:40;10.48;70.54
77056;SHT30;67471;44.918;8.614;2023-04-01T02:30:44;10.31;70.33
77056;SHT30;67471;44.918;8.614;2023-04-01T02:33:48;10.11;70.89
77056;SHT30;67471;44.918;8.614;2023-04-01T02:36:53;9.89;71.87
77056;SHT30;67471;44.918;8.614;2023-04-01T02:40:03;9.72;72.24
77056;SHT30;67471;44.918;8.614;2023-04-01T02:43:10;9.42;73.08
77056;SHT30;67471;44.918;8.614;2023-04-01T02:46:14;9.51;73.35
77056;SHT30;67471;44.918;8.614;2023-04-01T02:49:18;9.52;73.62
77056;SHT30;67471;44.918;8.614;2023-04-01T02:52:24;9.41;73.54
77056;SHT30;67471;44.918;8.614;2023-04-01T02:55:28;9.43;73.30
77056;SHT30;67471;44.918;8.614;2023-04-01T02:58:32;9.36;73.55
77056;SHT30;67471;44.918;8.614;2023-04-01T03:01:35;9.59;72.78
77056;SHT30;67471;44.918;8.614;2023-04-01T03:04:39;9.41;72.51
77056;SHT30;67471;44.918;8.614;2023-04-01T03:07:43;9.32;73.11
77056;SHT30;67471;44.918;8.614;2023-04-01T03:10:47;9.36;72.60
77056;SHT30;67471;44.918;8.614;2023-04-01T03:13:52;9.28;72.68
77056;SHT30;67471;44.918;8.614;2023-04-01T03:16:57;9.21;72.77
77056;SHT30;67471;44.918;8.614;2023-04-01T03:20:00;8.99;73.33
77056;SHT30;67471;44.918;8.614;2023-04-01T03:23:04;9.07;73.31
77056;SHT30;67471;44.918;8.614;2023-04-01T03:26:08;9.03;73.55
77056;SHT30;67471;44.918;8.614;2023-04-01T03:29:12;8.93;73.42
77056;SHT30;67471;44.918;8.614;2023-04-01T03:32:19;8.74;74.03
77056;SHT30;67471;44.918;8.614;2023-04-01T03:35:23;8.72;74.40
77056;SHT30;67471;44.918;8.614;2023-04-01T03:38:27;8.80;74.18
77056;SHT30;67471;44.918;8.614;2023-04-01T03:41:31;8.83;74.68
77056;SHT30;67471;44.918;8.614;2023-04-01T03:44:36;8.60;75.48
77056;SHT30;67471;44.918;8.614;2023-04-01T03:47:41;8.42;76.16
77056;SHT30;67471;44.918;8.614;2023-04-01T03:50:45;8.59;75.53
77056;SHT30;67471;44.918;8.614;2023-04-01T03:53:49;8.59;75.47
77056;SHT30;67471;44.918;8.614;2023-04-01T03:56:54;8.73;75.49
77056;SHT30;67471;44.918;8.614;2023-04-01T03:59:59;8.73;75.49
77056;SHT30;67471;44.918;8.614;2023-04-01T04:03:03;8.70;75.64
77056;SHT30;67471;44.918;8.614;2023-04-01T04:06:12;8.67;75.67
77056;SHT30;67471;44.918;8.614;2023-04-01T04:09:16;8.69;75.78
77056;SHT30;67471;44.918;8.614;2023-04-01T04:12:20;8.62;75.96
77056;SHT30;67471;44.918;8.614;2023-04-01T04:15:23;8.81;75.15
77056;SHT30;67471;44.918;8.614;2023-04-01T04:18:28;8.96;74.36
77056;SHT30;67471;44.918;8.614;2023-04-01T04:21:31;9.00;73.70
77056;SHT30;67471;44.918;8.614;2023-04-01T04:24:36;9.04;72.07
77056;SHT30;67471;44.918;8.614;2023-04-01T04:27:46;9.03;70.27
77056;SHT30;67471;44.918;8.614;2023-04-01T04:30:52;9.04;68.93
77056;SHT30;67471;44.918;8.614;2023-04-01T04:33:56;9.03;67.61
77056;SHT30;67471;44.918;8.614;2023-04-01T04:36:59;9.08;67.58
77056;SHT30;67471;44.918;8.614;2023-04-01T04:40:07;9.10;68.20
77056;SHT30;67471;44.918;8.614;2023-04-01T04:43:13;9.17;69.28
77056;SHT30;67471;44.918;8.614;2023-04-01T04:46:19;9.11;69.83
77056;SHT30;67471;44.918;8.614;2023-04-01T04:49:24;8.96;70.28
77056;SHT30;67471;44.918;8.614;2023-04-01T04:52:28;8.88;70.44
77056;SHT30;67471;44.918;8.614;2023-04-01T04:55:31;8.73;70.66
77056;SHT30;67471;44.918;8.614;2023-04-01T04:58:56;8.66;70.13
77056;SHT30;67471;44.918;8.614;2023-04-01T05:02:04;8.85;68.04
77056;SHT30;67471;44.918;8.614;2023-04-01T05:05:08;8.85;66.76
77056;SHT30;67471;44.918;8.614;2023-04-01T05:08:11;8.87;64.96
77056;SHT30;67471;44.918;8.614;2023-04-01T05:11:17;9.05;62.62
77056;SHT30;67471;44.918;8.614;2023-04-01T05:14:22;9.07;63.77
77056;SHT30;67471;44.918;8.614;2023-04-01T05:17:33;9.04;65.70
77056;SHT30;67471;44.918;8.614;2023-04-01T05:20:37;8.99;67.25
77056;SHT30;67471;44.918;8.614;2023-04-01T05:23:41;9.14;66.78
77056;SHT30;67471;44.918;8.614;2023-04-01T05:26:45;8.97;67.34
77056;SHT30;67471;44.918;8.614;2023-04-01T05:29:49;8.99;67.37
77056;SHT30;67471;44.918;8.614;2023-04-01T05:33:22;8.87;67.57
77056;SHT30;67471;44.918;8.614;2023-04-01T05:36:26;8.94;66.07
77056;SHT30;67471;44.918;8.614;2023-04-01T05:39:31;9.00;64.33
77056;SHT30;67471;44.918;8.614;2023-04-01T05:42:38;8.99;65.50
77056;SHT30;67471;44.918;8.614;2023-04-01T05:45:43;8.91;67.29
77056;SHT30;67471;44.918;8.614;2023-04-01T05:48:52;8.63;67.87
77056;SHT30;67471;44.918;8.614;2023-04-01T05:51:57;8.50;68.46
77056;SHT30;67471;44.918;8.614;2023-04-01T05:55:01;8.67;68.15
77056;SHT30;67471;44.918;8.614;2023-04-01T05:58:05;8.99;67.27
77056;SHT30;67471;44.918;8.614;2023-04-01T06:01:10;8.73;67.51
77056;SHT30;67471;44.918;8.614;2023-04-01T06:04:16;8.73;66.82
77056;SHT30;67471;44.918;8.614;2023-04-01T06:07:20;8.57;68.15
77056;SHT30;67471;44.918;8.614;2023-04-01T06:10:36;8.39;69.19
77056;SHT30;67471;44.918;8.614;2023-04-01T06:17:30;13.41;53.62
77056;SHT30;67471;44.918;8.614;2023-04-01T06:20:50;16.99;44.06
77056;SHT30;67471;44.918;8.614;2023-04-01T06:31:06;16.33;42.42
77056;SHT30;67471;44.918;8.614;2023-04-01T06:53:02;24.74;27.20
77056;SHT30;67471;44.918;8.614;2023-04-01T06:56:27;26.22;26.09
77056;SHT30;67471;44.918;8.614;2023-04-01T06:59:37;26.32;25.31
77056;SHT30;67471;44.918;8.614;2023-04-01T07:02:50;26.94;24.37
77056;SHT30;67471;44.918;8.614;2023-04-01T07:06:04;27.41;24.13
77056;SHT30;67471;44.918;8.614;2023-04-01T07:09:12;27.55;24.41
77056;SHT30;67471;44.918;8.614;2023-04-01T07:12:43;26.46;25.07
77056;SHT30;67471;44.918;8.614;2023-04-01T07:16:12;27.15;25.12
77056;SHT30;67471;44.918;8.614;2023-04-01T07:19:31;27.29;25.54
77056;SHT30;67471;44.918;8.614;2023-04-01T07:22:42;27.13;25.71
77056;SHT30;67471;44.918;8.614;2023-04-01T07:26:04;26.06;26.16
77056;SHT30;67471;44.918;8.614;2023-04-01T07:29:12;26.09;26.54
77056;SHT30;67471;44.918;8.614;2023-04-01T07:35:45;27.86;23.79
77056;SHT30;67471;44.918;8.614;2023-04-01T07:39:12;27.71;23.88
77056;SHT30;67471;44.918;8.614;2023-04-01T07:50:10;27.51;22.92
77056;SHT30;67471;44.918;8.614;2023-04-01T07:56:09;27.02;23.01
77056;SHT30;67471;44.918;8.614;2023-04-01T07:59:25;27.15;23.05
77056;SHT30;67471;44.918;8.614;2023-04-01T08:02:50;26.63;23.91
77056;SHT30;67471;44.918;8.614;2023-04-01T08:05:59;27.34;23.10
77056;SHT30;67471;44.918;8.614;2023-04-01T08:16:25;27.33;22.29
77056;SHT30;67471;44.918;8.614;2023-04-01T08:29:44;26.32;23.19
77056;SHT30;67471;44.918;8.614;2023-04-01T08:33:00;25.91;24.04
77056;SHT30;67471;44.918;8.614;2023-04-01T08:36:12;25.59;23.80
77056;SHT30;67471;44.918;8.614;2023-04-01T08:39:38;25.37;23.61
77056;SHT30;67471;44.918;8.614;2023-04-01T08:49:48;25.37;23.61
77056;SHT30;67471;44.918;8.614;2023-04-01T08:56:40;25.08;23.91
77056;SHT30;67471;44.918;8.614;2023-04-01T09:03:37;24.40;24.04
77056;SHT30;67471;44.918;8.614;2023-04-01T09:07:05;24.37;24.66
77056;SHT30;67471;44.918;8.614;2023-04-01T09:14:29;24.68;24.63
77056;SHT30;67471;44.918;8.614;2023-04-01T09:21:14;24.40;25.19
77056;SHT30;67471;44.918;8.614;2023-04-01T09:28:13;24.14;25.81
77056;SHT30;67471;44.918;8.614;2023-04-01T09:31:25;24.34;24.72
77056;SHT30;67471;44.918;8.614;2023-04-01T09:35:36;24.36;25.03
77056;SHT30;67471;44.918;8.614;2023-04-01T09:38:59;24.60;24.78
77056;SHT30;67471;44.918;8.614;2023-04-01T09:46:02;24.76;24.33
77056;SHT30;67471;44.918;8.614;2023-04-01T09:52:45;24.91;24.34
77056;SHT30;67471;44.918;8.614;2023-04-01T10:17:16;25.29;24.13
77056;SHT30;67471;44.918;8.614;2023-04-01T10:27:15;25.62;23.64
77056;SHT30;67471;44.918;8.614;2023-04-01T10:31:02;25.42;24.26
77056;SHT30;67471;44.918;8.614;2023-04-01T10:34:14;25.01;24.84
77056;SHT30;67471;44.918;8.614;2023-04-01T10:41:22;25.26;24.70
77056;SHT30;67471;44.918;8.614;2023-04-01T10:48:37;25.35;24.93
77056;SHT30;67471;44.918;8.614;2023-04-01T10:56:28;24.92;25.34
77056;SHT30;67471;44.918;8.614;2023-04-01T11:04:04;24.76;24.59
77056;SHT30;67471;44.918;8.614;2023-04-01T11:17:59;25.04;23.02
77056;SHT30;67471;44.918;8.614;2023-04-01T11:39:10;25.02;20.06
77056;SHT30;67471;44.918;8.614;2023-04-01T11:46:56;24.95;21.16
77056;SHT30;67471;44.918;8.614;2023-04-01T11:50:18;25.04;21.35
77056;SHT30;67471;44.918;8.614;2023-04-01T12:18:18;25.09;22.31
77056;SHT30;67471;44.918;8.614;2023-04-01T12:21:38;25.01;22.08
77056;SHT30;67471;44.918;8.614;2023-04-01T12:24:55;25.16;22.10
77056;SHT30;67471;44.918;8.614;2023-04-01T12:31:47;25.32;21.57
77056;SHT30;67471;44.918;8.614;2023-04-01T12:38:38;25.46;21.77
77056;SHT30;67471;44.918;8.614;2023-04-01T12:41:53;25.54;20.86
77056;SHT30;67471;44.918;8.614;2023-04-01T12:52:09;25.53;20.43
77056;SHT30;67471;44.918;8.614;2023-04-01T12:55:18;25.50;19.43
77056;SHT30;67471;44.918;8.614;2023-04-01T12:59:07;25.32;19.68
77056;SHT30;67471;44.918;8.614;2023-04-01T13:02:37;25.32;20.12
77056;SHT30;67471;44.918;8.614;2023-04-01T13:09:09;25.30;19.61
77056;SHT30;67471;44.918;8.614;2023-04-01T13:12:35;24.89;19.25
77056;SHT30;67471;44.918;8.614;2023-04-01T13:19:15;25.43;18.44
77056;SHT30;67471;44.918;8.614;2023-04-01T13:22:45;25.50;18.68
77056;SHT30;67471;44.918;8.614;2023-04-01T13:29:21;25.27;17.87
77056;SHT30;67471;44.918;8.614;2023-04-01T13:35:46;25.33;17.89
77056;SHT30;67471;44.918;8.614;2023-04-01T14:22:31;25.54;17.53
77056;SHT30;67471;44.918;8.614;2023-04-01T14:29:10;25.75;17.17
77056;SHT30;67471;44.918;8.614;2023-04-01T14:32:34;25.80;16.67
77056;SHT30;67471;44.918;8.614;2023-04-01T14:50:15;25.39;17.66
77056;SHT30;67471;44.918;8.614;2023-04-01T14:59:49;25.56;18.02
77056;SHT30;67471;44.918;8.614;2023-04-01T15:02:58;25.66;17.70
77056;SHT30;67471;44.918;8.614;2023-04-01T15:07:28;25.47;18.12
77056;SHT30;67471;44.918;8.614;2023-04-01T15:23:31;25.46;17.82
77056;SHT30;67471;44.918;8.614;2023-04-01T15:33:45;25.44;18.01
77056;SHT30;67471;44.918;8.614;2023-04-01T15:36:57;25.29;17.66
77056;SHT30;67471;44.918;8.614;2023-04-01T15:40:24;25.22;17.34
77056;SHT30;67471;44.918;8.614;2023-04-01T15:46:48;24.98;17.96
77056;SHT30;67471;44.918;8.614;2023-04-01T15:57:23;24.69;19.41
77056;SHT30;67471;44.918;8.614;2023-04-01T16:00:11;24.76;19.30
77056;SHT30;67471;44.918;8.614;2023-04-01T16:07:10;24.27;19.14
77056;SHT30;67471;44.918;8.614;2023-04-01T16:23:26;24.02;20.17
77056;SHT30;67471;44.918;8.614;2023-04-01T16:26:42;23.96;20.05
77056;SHT30;67471;44.918;8.614;2023-04-01T16:47:19;22.56;25.40
77056;SHT30;67471;44.918;8.614;2023-04-01T16:50:30;22.23;25.92
77056;SHT30;67471;44.918;8.614;2023-04-01T16:53:49;22.08;25.71
77056;SHT30;67471;44.918;8.614;2023-04-01T16:56:56;21.75;25.19
77056;SHT30;67471;44.918;8.614;2023-04-01T17:00:39;21.65;25.43
77056;SHT30;67471;44.918;8.614;2023-04-01T17:03:46;21.50;25.90
77056;SHT30;67471;44.918;8.614;2023-04-01T17:17:27;21.09;26.10
77056;SHT30;67471;44.918;8.614;2023-04-01T17:20:43;20.80;26.43
77056;SHT30;67471;44.918;8.614;2023-04-01T17:31:37;20.24;27.72
77056;SHT30;67471;44.918;8.614;2023-04-01T17:34:46;20.07;27.84
77056;SHT30;67471;44.918;8.614;2023-04-01T17:41:53;19.46;30.37
77056;SHT30;67471;44.918;8.614;2023-04-01T17:51:29;19.02;31.34
77056;SHT30;67471;44.918;8.614;2023-04-01T18:01:20;18.64;30.76
77056;SHT30;67471;44.918;8.614;2023-04-01T18:07:57;18.72;28.53
77056;SHT30;67471;44.918;8.614;2023-04-01T18:21:50;18.71;26.70
77056;SHT30;67471;44.918;8.614;2023-04-01T18:25:04;18.64;26.94
77056;SHT30;67471;44.918;8.614;2023-04-01T18:31:52;18.71;26.47
77056;SHT30;67471;44.918;8.614;2023-04-01T18:38:34;18.39;26.60
77056;SHT30;67471;44.918;8.614;2023-04-01T18:45:20;18.00;27.54
77056;SHT30;67471;44.918;8.614;2023-04-01T18:52:03;17.83;28.08
77056;SHT30;67471;44.918;8.614;2023-04-01T19:01:48;17.28;29.69
77056;SHT30;67471;44.918;8.614;2023-04-01T19:08:38;16.96;31.39
77056;SHT30;67471;44.918;8.614;2023-04-01T19:15:39;16.76;32.61
77056;SHT30;67471;44.918;8.614;2023-04-01T19:19:03;16.62;33.26
77056;SHT30;67471;44.918;8.614;2023-04-01T19:22:33;16.55;33.83
77056;SHT30;67471;44.918;8.614;2023-04-01T19:25:43;16.10;34.90
77056;SHT30;67471;44.918;8.614;2023-04-01T19:38:31;16.53;35.48
77056;SHT30;67471;44.918;8.614;2023-04-01T19:48:34;16.28;37.11
77056;SHT30;67471;44.918;8.614;2023-04-01T20:01:46;15.98;38.79
77056;SHT30;67471;44.918;8.614;2023-04-01T20:04:53;16.18;38.97
77056;SHT30;67471;44.918;8.614;2023-04-01T20:08:40;16.17;39.04
77056;SHT30;67471;44.918;8.614;2023-04-01T20:12:04;15.98;39.69
77056;SHT30;67471;44.918;8.614;2023-04-01T20:16:07;15.44;40.52
77056;SHT30;67471;44.918;8.614;2023-04-01T20:21:49;16.02;40.52
77056;SHT30;67471;44.918;8.614;2023-04-01T20:24:58;16.00;40.90
77056;SHT30;67471;44.918;8.614;2023-04-01T20:28:21;15.61;42.24
77056;SHT30;67471;44.918;8.614;2023-04-01T20:31:36;15.50;42.88
77056;SHT30;67471;44.918;8.614;2023-04-01T20:45:30;15.44;43.95
77056;SHT30;67471;44.918;8.614;2023-04-01T20:51:53;15.42;44.12
77056;SHT30;67471;44.918;8.614;2023-04-01T21:21:53;15.42;42.63
77056;SHT30;67471;44.918;8.614;2023-04-01T21:28:40;15.39;42.83
77056;SHT30;67471;44.918;8.614;2023-04-01T21:32:04;15.33;43.02
77056;SHT30;67471;44.918;8.614;2023-04-01T22:02:41;14.85;45.66
77056;SHT30;67471;44.918;8.614;2023-04-01T22:09:29;14.88;45.75
77056;SHT30;67471;44.918;8.614;2023-04-01T22:12:42;14.89;45.93
77056;SHT30;67471;44.918;8.614;2023-04-01T22:26:44;14.50;48.38
77056;SHT30;67471;44.918;8.614;2023-04-01T22:33:07;14.56;48.53
77056;SHT30;67471;44.918;8.614;2023-04-01T22:40:08;14.56;48.75
77056;SHT30;67471;44.918;8.614;2023-04-01T22:43:08;14.60;49.44
77056;SHT30;67471;44.918;8.614;2023-04-01T22:53:26;14.29;50.71
77056;SHT30;67471;44.918;8.614;2023-04-01T22:56:35;14.36;50.84
77056;SHT30;67471;44.918;8.614;2023-04-01T22:59:46;14.20;50.96
77056;SHT30;67471;44.918;8.614;2023-04-01T23:06:18;14.30;51.26
77056;SHT30;67471;44.918;8.614;2023-04-01T23:09:27;14.29;51.60
77056;SHT30;67471;44.918;8.614;2023-04-01T23:12:32;14.24;51.88
77056;SHT30;67471;44.918;8.614;2023-04-01T23:15:37;14.21;52.26
77056;SHT30;67471;44.918;8.614;2023-04-01T23:18:55;14.17;52.73
77056;SHT30;67471;44.918;8.614;2023-04-01T23:31:47;14.29;53.23
77056;SHT30;67471;44.918;8.614;2023-04-01T23:34:58;14.34;53.36
77056;SHT30;67471;44.918;8.614;2023-04-01T23:38:03;14.33;53.47
77056;SHT30;67471;44.918;8.614;2023-04-01T23:41:28;14.38;53.75
77056;SHT30;67471;44.918;8.614;2023-04-01T23:44:35;14.26;54.53
77056;SHT30;67471;44.918;8.614;2023-04-01T23:47:40;14.26;54.47
77056;SHT30;67471;44.918;8.614;2023-04-01T23:50:45;14.27;53.93
77056;SHT30;67471;44.918;8.614;2023-04-01T23:54:00;14.26;53.88
77056;SHT30;67471;44.918;8.614;2023-04-01T23:57:12;14.20;53.97
